.
WxDataArchive / Data Records for 2008-01-08
2008-01-07 January 2008 2008-01-09

Data Records for Tuesday, 08 January 2008

Time	Temp	Chill	HIndex	Humid	Dewpt	 Wind 	HiWind	WindDir	Rain 	Barom 
-----	----	-----	------	-----	-----	------	------	-------	-----	----- 
00:00	53.6	53.6	53.6	95	52.2	0	3	248	0.02	29.931 
00:05	53.6	53.6	53.6	95	52.2	0	1	248	0.02	29.922 
00:10	53.6	53.6	53.6	95	52.2	0	2	248	0.01	29.921 
00:15	53.6	53.6	53.6	95	52.2	0	1	248	0.02	29.922 
00:20	53.6	53.6	53.6	95	52.2	0	2	248	0.02	29.918 
00:25	53.6	53.6	53.6	96	52.5	0	1	248	0.01	29.912 
00:30	53.6	53.6	53.6	96	52.5	0	1	248	0.00	29.913 
00:35	53.6	53.6	53.6	96	52.5	0	1	248	0.01	29.908 
00:40	53.6	53.6	53.6	96	52.5	0	3	248	0.01	29.906 
00:45	53.6	53.6	53.6	96	52.5	0	2	248	0.00	29.905 
00:50	53.6	53.6	53.6	96	52.5	0	1	248	0.01	29.905 
00:55	53.5	53.5	53.5	96	52.4	0	0	---	0.00	29.907 
01:00	53.5	53.5	53.5	96	52.4	0	1	248	0.00	29.909 
01:05	53.5	53.5	53.5	96	52.4	0	1	248	0.00	29.910 
01:10	53.3	53.3	53.3	96	52.2	0	1	248	0.00	29.894 
01:15	53.3	53.3	53.3	96	52.2	0	0	---	0.00	29.899 
01:20	53.3	53.3	53.3	96	52.2	1	2	248	0.03	29.902 
01:25	53.3	53.3	53.3	96	52.2	0	1	248	0.04	29.890 
01:30	53.3	53.3	53.3	96	52.2	1	3	248	0.00	29.911 
01:35	53.2	53.2	53.2	96	52.1	0	1	248	0.00	29.901 
01:40	53.2	53.2	53.2	96	52.1	1	2	0	0.00	29.898 
01:45	53.2	53.2	53.2	96	52.1	1	3	0	0.02	29.885 
01:50	53.3	53.3	53.3	96	52.2	0	1	270	0.02	29.894 
01:55	53.3	53.3	53.3	97	52.5	0	1	270	0.05	29.899 
02:00	53.5	53.5	53.5	97	52.7	0	0	---	0.06	29.882 
02:05	53.5	53.5	53.5	97	52.7	0	1	270	0.00	29.875 
02:10	53.5	53.5	53.5	97	52.7	0	0	---	0.00	29.868 
02:15	53.5	53.5	53.5	97	52.7	0	0	---	0.00	29.868 
02:20	53.3	53.3	53.3	97	52.5	1	3	270	0.01	29.859 
02:25	53.3	53.3	53.3	97	52.5	2	7	248	0.00	29.870 
02:30	53.3	53.3	53.3	97	52.5	2	7	248	0.00	29.885 
02:35	53.3	53.3	53.3	97	52.5	1	3	270	0.00	29.875 
02:40	53.3	53.3	53.3	97	52.5	2	5	112	0.02	29.870 
02:45	53.3	53.3	53.3	97	52.5	1	3	248	0.01	29.863 
02:50	53.3	53.3	53.3	97	52.5	1	3	248	0.01	29.876 
02:55	53.2	53.2	53.2	97	52.4	2	4	112	0.00	29.856 
03:00	53.2	53.2	53.2	97	52.4	0	2	112	0.00	29.860 
03:05	53.2	53.2	53.2	97	52.4	0	1	112	0.00	29.863 
03:10	53.2	53.2	53.2	97	52.4	0	1	112	0.00	29.868 
03:15	53.1	53.1	53.1	97	52.3	1	2	112	0.01	29.855 
03:20	52.9	52.9	52.9	97	52.1	0	2	112	0.01	29.868 
03:25	53.1	53.1	53.1	97	52.3	1	2	112	0.03	29.858 
03:30	53.1	53.1	53.1	97	52.3	1	3	112	0.01	29.854 
03:35	53.1	53.1	53.1	97	52.3	0	2	112	0.03	29.855 
03:40	53.1	53.1	53.1	97	52.3	0	2	112	0.04	29.870 
03:45	53.1	53.1	53.1	97	52.3	1	3	45	0.03	29.851 
03:50	52.9	52.9	52.9	97	52.1	3	6	112	0.01	29.839 
03:55	52.9	52.9	52.9	97	52.1	2	4	248	0.04	29.861 
04:00	52.9	52.9	52.9	97	52.1	2	5	90	0.02	29.847 
04:05	52.9	52.9	52.9	97	52.1	2	4	112	0.01	29.840 
04:10	52.9	52.9	52.9	97	52.1	1	3	90	0.01	29.851 
04:15	52.9	52.9	52.9	97	52.1	1	3	112	0.01	29.840 
04:20	52.8	52.8	52.8	97	52.0	1	3	112	0.00	29.832 
04:25	52.8	52.8	52.8	97	52.0	3	7	112	0.00	29.825 
04:30	52.8	52.8	52.8	97	52.0	1	4	90	0.02	29.824 
04:35	52.8	52.8	52.8	97	52.0	2	5	90	0.00	29.814 
04:40	52.6	52.6	52.6	97	51.8	2	4	135	0.00	29.818 
04:45	52.6	52.6	52.6	97	51.8	2	6	90	0.00	29.811 
04:50	52.6	52.6	52.6	97	51.8	1	3	112	0.00	29.812 
04:55	52.6	52.6	52.6	97	51.8	1	4	112	0.00	29.809 
05:00	52.6	52.6	52.6	97	51.8	0	2	112	0.00	29.810 
05:05	52.6	52.6	52.6	97	51.8	0	1	112	0.00	29.811 
05:10	52.5	52.5	52.5	97	51.7	0	1	112	0.00	29.805 
05:15	52.6	52.6	52.6	97	51.8	1	4	90	0.00	29.798 
05:20	52.6	52.6	52.6	97	51.8	0	2	90	0.00	29.797 
05:25	52.5	52.5	52.5	97	51.7	0	1	90	0.00	29.798 
05:30	52.5	52.5	52.5	97	51.7	0	2	90	0.00	29.796 
05:35	52.5	52.5	52.5	97	51.7	1	2	90	0.01	29.794 
05:40	52.5	52.5	52.5	97	51.7	0	2	90	0.00	29.791 
05:45	52.6	52.6	52.6	97	51.8	1	3	90	0.00	29.790 
05:50	52.5	52.5	52.5	97	51.7	1	2	90	0.00	29.783 
05:55	52.5	52.5	52.5	97	51.7	1	3	68	0.00	29.781 
06:00	52.5	52.5	52.5	97	51.7	2	5	112	0.00	29.775 
06:05	52.5	52.5	52.5	97	51.7	2	5	90	0.00	29.771 
06:10	52.3	52.3	52.3	97	51.5	1	4	90	0.00	29.770 
06:15	52.3	52.3	52.3	97	51.5	0	2	90	0.01	29.773 
06:20	52.3	52.3	52.3	97	51.5	0	2	90	0.01	29.772 
06:25	52.3	52.3	52.3	97	51.5	1	3	90	0.02	29.771 
06:30	52.3	52.3	52.3	97	51.5	0	2	90	0.00	29.768 
06:35	52.3	52.3	52.3	97	51.5	0	2	90	0.00	29.766 
06:40	52.3	52.3	52.3	97	51.5	0	2	90	0.00	29.765 
06:45	52.3	52.3	52.3	97	51.5	1	4	90	0.00	29.761 
06:50	52.3	52.3	52.3	97	51.5	2	4	112	0.00	29.756 
06:55	52.3	52.3	52.3	97	51.5	1	3	112	0.00	29.751 
07:00	52.3	52.3	52.3	97	51.5	2	4	90	0.00	29.748 
07:05	52.3	52.3	52.3	97	51.5	2	4	112	0.00	29.744 
07:10	52.2	52.2	52.2	97	51.4	4	6	90	0.00	29.734 
07:15	52.2	52.2	52.2	97	51.4	2	5	90	0.00	29.736 
07:20	52.2	52.2	52.2	97	51.4	2	4	112	0.00	29.737 
07:25	52.2	52.2	52.2	100	52.2	2	5	90	0.00	29.730 
07:30	52.2	52.2	52.2	97	51.4	2	4	90	0.00	29.721 
07:35	52.3	52.3	52.3	97	51.5	1	3	90	0.00	29.727 
07:40	52.3	52.3	52.3	97	51.5	1	2	90	0.00	29.725 
07:45	52.5	52.5	52.5	97	51.7	0	3	112	0.00	29.720 
07:50	52.8	52.8	52.8	97	52.0	1	4	112	0.00	29.723 
07:55	53.2	53.2	53.2	97	52.4	2	5	158	0.00	29.719 
08:00	53.8	53.8	53.8	97	53.0	3	7	112	0.01	29.716 
08:05	54.2	54.2	54.2	96	53.1	2	5	90	0.00	29.720 
08:10	54.5	54.5	54.5	96	53.4	2	5	0	0.01	29.715 
08:15	54.8	54.8	54.8	95	53.4	2	7	248	0.00	29.717 
08:20	55.0	55.0	55.0	94	53.3	1	5	0	0.00	29.714 
08:25	55.1	55.1	55.1	93	53.1	2	5	292	0.00	29.713 
08:30	55.3	55.3	55.3	92	53.0	2	6	90	0.00	29.711 
08:35	55.6	55.6	55.6	91	53.0	2	5	248	0.00	29.706 
08:40	55.9	55.9	55.9	90	53.0	2	6	90	0.00	29.705 
08:45	56.2	56.2	56.2	89	53.0	2	6	270	0.00	29.708 
08:50	56.5	56.5	56.5	88	53.0	3	12	90	0.01	29.703 
08:55	56.6	56.6	56.6	87	52.8	3	7	292	0.00	29.697 
09:00	56.6	56.6	56.6	87	52.8	3	6	90	0.00	29.697 
09:05	56.6	56.6	56.6	87	52.8	2	13	68	0.01	29.696 
09:10	56.5	56.5	56.5	87	52.7	3	7	292	0.00	29.696 
09:15	56.5	56.5	56.5	87	52.7	4	10	90	0.00	29.693 
09:20	56.5	56.5	56.5	87	52.7	3	7	90	0.00	29.696 
09:25	56.5	56.5	56.5	87	52.7	3	11	68	0.00	29.694 
09:30	56.5	56.5	56.5	87	52.7	2	11	45	0.00	29.695 
09:35	56.5	56.5	56.5	87	52.7	3	9	315	0.00	29.694 
09:40	56.5	56.5	56.5	87	52.7	3	7	90	0.01	29.695 
09:45	56.3	56.3	56.3	87	52.5	2	6	0	0.00	29.697 
09:50	56.3	56.3	56.3	88	52.8	3	6	270	0.00	29.696 
09:55	56.0	56.0	56.0	88	52.5	2	6	90	0.01	29.685 
10:00	56.0	56.0	56.0	89	52.8	2	7	338	0.00	29.699 
10:05	55.9	55.9	55.9	90	53.0	2	7	270	0.00	29.703 
10:10	55.9	55.9	55.9	90	53.0	3	7	68	0.00	29.700 
10:15	56.0	56.0	56.0	90	53.1	3	6	248	0.00	29.708 
10:20	56.0	56.0	56.0	89	52.8	4	10	248	0.00	29.711 
10:25	56.2	56.2	56.2	89	53.0	4	13	270	0.00	29.712 
10:30	56.3	56.3	56.3	89	53.1	3	9	270	0.00	29.712 
10:35	56.2	56.2	56.2	90	53.3	3	7	270	0.00	29.713 
10:40	56.2	56.2	56.2	89	53.0	4	12	248	0.00	29.715 
10:45	56.2	56.2	56.2	89	53.0	2	6	270	0.00	29.715 
10:50	56.2	56.2	56.2	90	53.3	3	11	248	0.01	29.714 
10:55	56.0	56.0	56.0	90	53.1	4	9	270	0.00	29.716 
11:00	56.0	56.0	56.0	90	53.1	3	12	248	0.01	29.714 
11:05	55.9	55.9	55.9	91	53.3	5	12	270	0.01	29.716 
11:10	55.6	55.6	55.6	92	53.3	4	10	270	0.01	29.714 
11:15	55.4	55.4	55.4	92	53.1	4	13	270	0.02	29.707 
11:20	55.4	55.4	55.4	93	53.4	4	11	248	0.01	29.696 
11:25	55.3	55.3	55.3	93	53.3	4	12	248	0.02	29.705 
11:30	55.3	55.3	55.3	94	53.6	4	12	270	0.01	29.703 
11:35	55.4	55.4	55.4	94	53.7	4	12	270	0.00	29.689 
11:40	55.6	55.6	55.6	94	53.9	4	11	68	0.01	29.666 
11:45	56.0	56.0	56.0	94	54.3	3	11	68	0.00	29.653 
11:50	56.3	56.3	56.3	94	54.6	4	10	90	0.00	29.627 
11:55	56.5	56.5	56.5	93	54.5	3	10	68	0.00	29.634 
12:00	56.7	56.7	56.7	93	54.7	4	11	68	0.00	29.632 
12:05	57.0	57.0	57.0	93	55.0	3	11	68	0.00	29.628 
12:10	57.2	57.2	57.2	92	54.9	4	14	270	0.00	29.628 
12:15	57.3	57.3	57.3	92	55.0	3	10	248	0.00	29.629 
12:20	57.5	57.5	57.5	91	54.9	4	15	270	0.00	29.626 
12:25	57.6	57.6	57.6	90	54.7	3	10	248	0.00	29.637 
12:30	58.0	58.0	58.0	90	55.1	4	10	248	0.00	29.627 
12:35	58.3	58.3	58.3	89	55.1	4	14	270	0.00	29.627 
12:40	58.4	58.4	58.4	89	55.2	3	9	270	0.00	29.637 
12:45	58.4	58.4	58.4	88	54.9	5	16	248	0.00	29.637 
12:50	58.6	58.6	58.6	87	54.7	4	12	248	0.00	29.636 
12:55	58.7	58.7	58.7	87	54.8	4	9	248	0.00	29.641 
13:00	59.0	59.0	59.0	87	55.1	5	19	270	0.00	29.648 
13:05	59.0	59.0	59.0	86	54.8	4	14	225	0.00	29.632 
13:10	59.0	59.0	59.0	86	54.8	4	16	225	0.00	29.639 
13:15	59.0	59.0	59.0	85	54.5	4	13	270	0.00	29.640 
13:20	59.0	59.0	59.0	84	54.2	6	15	270	0.00	29.636 
13:25	59.0	59.0	59.0	84	54.2	5	14	248	0.00	29.625 
13:30	58.9	58.9	58.9	85	54.4	6	14	248	0.00	29.639 
13:35	58.7	58.7	58.7	86	54.5	5	12	248	0.00	29.633 
13:40	58.9	58.9	58.9	85	54.4	7	16	270	0.01	29.624 
13:45	58.9	58.9	58.9	84	54.1	5	12	270	0.00	29.607 
13:50	58.9	58.9	58.9	84	54.1	4	12	270	0.00	29.612 
13:55	58.9	58.9	58.9	83	53.7	5	13	248	0.00	29.624 
14:00	59.2	59.2	59.2	81	53.4	6	15	248	0.00	29.637 
14:05	59.3	59.3	59.3	81	53.5	6	16	270	0.00	29.637 
14:10	59.3	59.3	59.3	80	53.1	7	15	248	0.00	29.648 
14:15	59.3	59.3	59.3	81	53.5	7	17	248	0.00	29.653 
14:20	59.0	59.0	59.0	81	53.2	7	21	248	0.00	29.639 
14:25	58.6	58.6	58.6	83	53.4	7	17	270	0.00	29.635 
14:30	58.3	58.3	58.3	85	53.8	6	17	270	0.00	29.623 
14:35	58.0	58.0	58.0	85	53.5	5	14	90	0.00	29.589 
14:40	57.6	57.6	57.6	86	53.4	4	11	90	0.00	29.603 
14:45	57.6	57.6	57.6	86	53.4	5	11	270	0.00	29.623 
14:50	57.6	57.6	57.6	86	53.4	3	9	292	0.00	29.611 
14:55	57.5	57.5	57.5	86	53.3	4	13	90	0.00	29.596 
15:00	57.6	57.6	57.6	86	53.4	3	11	270	0.00	29.609 
15:05	57.6	57.6	57.6	86	53.4	3	9	270	0.00	29.615 
15:10	57.6	57.6	57.6	85	53.1	4	9	248	0.00	29.603 
15:15	57.8	57.8	57.8	84	53.0	4	10	248	0.00	29.615 
15:20	58.0	58.0	58.0	83	52.9	3	9	270	0.00	29.611 
15:25	58.0	58.0	58.0	82	52.5	3	11	248	0.00	29.609 
15:30	58.1	58.1	58.1	82	52.6	4	15	248	0.00	29.610 
15:35	58.0	58.0	58.0	82	52.5	3	9	248	0.00	29.615 
15:40	58.0	58.0	58.0	83	52.9	3	11	248	0.00	29.623 
15:45	57.8	57.8	57.8	83	52.7	3	7	248	0.00	29.622 
15:50	57.6	57.6	57.6	84	52.8	3	8	225	0.00	29.623 
15:55	57.6	57.6	57.6	84	52.8	3	9	270	0.00	29.623 
16:00	57.5	57.5	57.5	85	53.0	4	13	248	0.00	29.624 
16:05	57.3	57.3	57.3	85	52.8	2	6	248	0.00	29.622 
16:10	57.2	57.2	57.2	86	53.0	3	9	248	0.00	29.624 
16:15	57.0	57.0	57.0	87	53.2	3	10	270	0.01	29.609 
16:20	56.9	56.9	56.9	87	53.1	3	9	248	0.00	29.617 
16:25	56.9	56.9	56.9	87	53.1	4	12	248	0.00	29.612 
16:30	57.0	57.0	57.0	87	53.2	4	13	270	0.00	29.608 
16:35	57.0	57.0	57.0	87	53.2	3	9	248	0.00	29.610 
16:40	56.9	56.9	56.9	87	53.1	3	10	270	0.00	29.620 
16:45	56.9	56.9	56.9	88	53.4	4	13	202	0.00	29.619 
16:50	56.6	56.6	56.6	89	53.4	2	7	90	0.01	29.613 
16:55	56.5	56.5	56.5	90	53.6	3	9	270	0.00	29.620 
17:00	56.3	56.3	56.3	90	53.4	3	9	248	0.01	29.624 
17:05	56.3	56.3	56.3	91	53.7	3	11	248	0.00	29.621 
17:10	56.2	56.2	56.2	91	53.6	2	7	270	0.01	29.616 
17:15	56.0	56.0	56.0	92	53.7	2	6	270	0.01	29.610 
17:20	56.0	56.0	56.0	92	53.7	1	5	270	0.01	29.608 
17:25	55.9	55.9	55.9	92	53.6	3	14	90	0.01	29.604 
17:30	56.0	56.0	56.0	92	53.7	3	13	68	0.00	29.608 
17:35	55.9	55.9	55.9	92	53.6	3	10	270	0.00	29.607 
17:40	55.9	55.9	55.9	92	53.6	3	11	248	0.01	29.608 
17:45	56.0	56.0	56.0	92	53.7	4	13	270	0.01	29.594 
17:50	56.0	56.0	56.0	92	53.7	5	13	90	0.00	29.593 
17:55	56.0	56.0	56.0	92	53.7	4	11	90	0.02	29.592 
18:00	55.9	55.9	55.9	92	53.6	3	9	90	0.01	29.584 
18:05	55.7	55.7	55.7	92	53.4	3	5	90	0.02	29.585 
18:10	55.7	55.7	55.7	93	53.7	1	4	248	0.00	29.581 
18:15	55.6	55.6	55.6	93	53.6	1	7	45	0.00	29.577 
18:20	55.4	55.4	55.4	93	53.4	1	4	90	0.00	29.578 
18:25	55.4	55.4	55.4	93	53.4	1	5	0	0.00	29.577 
18:30	55.4	55.4	55.4	93	53.4	1	4	270	0.00	29.578 
18:35	55.4	55.4	55.4	93	53.4	2	5	90	0.00	29.569 
18:40	55.4	55.4	55.4	93	53.4	1	3	68	0.00	29.568 
18:45	55.4	55.4	55.4	93	53.4	1	5	292	0.00	29.568 
18:50	55.6	55.6	55.6	93	53.6	1	4	248	0.00	29.562 
18:55	55.6	55.6	55.6	93	53.6	2	4	248	0.00	29.557 
19:00	55.6	55.6	55.6	93	53.6	1	5	248	0.00	29.547 
19:05	55.6	55.6	55.6	93	53.6	1	5	202	0.00	29.546 
19:10	55.6	55.6	55.6	93	53.6	1	5	90	0.03	29.546 
19:15	55.6	55.6	55.6	93	53.6	1	4	90	0.01	29.544 
19:20	55.6	55.6	55.6	94	53.9	2	10	68	0.01	29.539 
19:25	55.4	55.4	55.4	94	53.7	2	3	112	0.00	29.532 
19:30	55.4	55.4	55.4	94	53.7	1	5	90	0.00	29.532 
19:35	55.4	55.4	55.4	94	53.7	2	5	90	0.00	29.531 
19:40	55.4	55.4	55.4	94	53.7	2	4	90	0.00	29.527 
19:45	55.6	55.6	55.6	93	53.6	2	6	315	0.00	29.528 
19:50	55.7	55.7	55.7	93	53.7	2	9	270	0.00	29.522 
19:55	55.9	55.9	55.9	93	53.9	3	11	248	0.00	29.515 
20:00	55.9	55.9	55.9	93	53.9	3	6	270	0.00	29.511 
20:05	56.0	56.0	56.0	92	53.7	3	9	248	0.00	29.499 
20:10	56.0	56.0	56.0	92	53.7	3	9	248	0.00	29.494 
20:15	56.2	56.2	56.2	92	53.9	3	7	248	0.00	29.486 
20:20	56.2	56.2	56.2	92	53.9	2	6	270	0.00	29.485 
20:25	56.3	56.3	56.3	92	54.0	3	7	270	0.00	29.480 
20:30	56.5	56.5	56.5	91	53.9	3	9	248	0.00	29.475 
20:35	56.6	56.6	56.6	91	54.0	3	8	248	0.00	29.477 
20:40	56.6	56.6	56.6	91	54.0	3	9	270	0.00	29.467 
20:45	56.6	56.6	56.6	91	54.0	3	10	248	0.00	29.464 
20:50	56.5	56.5	56.5	91	53.9	2	6	315	0.00	29.461 
20:55	56.5	56.5	56.5	91	53.9	2	7	248	0.00	29.459 
21:00	56.3	56.3	56.3	92	54.0	1	5	90	0.00	29.455 
21:05	56.2	56.2	56.2	92	53.9	2	6	292	0.00	29.449 
21:10	56.0	56.0	56.0	93	54.0	1	5	270	0.00	29.443 
21:15	56.0	56.0	56.0	93	54.0	2	13	270	0.02	29.439 
21:20	55.9	55.9	55.9	94	54.2	3	9	248	0.01	29.435 
21:25	55.9	55.9	55.9	94	54.2	2	5	270	0.01	29.429 
21:30	55.7	55.7	55.7	94	54.0	1	6	90	0.00	29.422 
21:35	55.7	55.7	55.7	95	54.3	3	7	248	0.01	29.419 
21:40	55.9	55.9	55.9	95	54.5	3	7	248	0.01	29.418 
21:45	55.9	55.9	55.9	95	54.5	3	7	248	0.02	29.413 
21:50	55.7	55.7	55.7	95	54.3	1	4	270	0.06	29.403 
21:55	55.7	55.7	55.7	95	54.3	2	6	248	0.03	29.406 
22:00	55.6	55.6	55.6	95	54.2	3	8	248	0.02	29.411 
22:05	55.4	55.4	55.4	95	54.0	4	13	270	0.01	29.413 
22:10	55.1	55.1	55.1	95	53.7	4	10	270	0.01	29.418 
22:15	55.0	55.0	55.0	96	53.9	3	9	248	0.01	29.426 
22:20	54.8	54.8	54.8	95	53.4	3	10	248	0.00	29.416 
22:25	54.7	54.7	54.7	96	53.6	3	9	248	0.02	29.419 
22:30	54.2	54.2	54.2	95	52.8	5	13	270	0.02	29.423 
22:35	53.8	53.8	53.8	95	52.4	3	8	270	0.01	29.429 
22:40	53.5	53.5	53.5	95	52.1	3	11	270	0.00	29.436 
22:45	53.1	53.1	53.1	94	51.4	4	9	270	0.01	29.436 
22:50	52.9	52.9	52.9	94	51.2	1	4	270	0.00	29.427 
22:55	52.6	52.6	52.6	94	50.9	2	10	270	0.00	29.421 
23:00	52.5	52.5	52.5	94	50.8	2	6	270	0.00	29.422 
23:05	52.2	52.2	52.2	94	50.5	2	5	270	0.00	29.423 
23:10	51.7	51.7	51.7	93	49.7	3	7	270	0.01	29.421 
23:15	51.4	51.4	51.4	92	49.2	4	8	270	0.00	29.423 
23:20	51.1	51.1	51.1	92	48.9	3	6	270	0.00	29.436 
23:25	51.0	51.0	51.0	92	48.8	4	10	270	0.00	29.446 
23:30	51.0	51.0	51.0	92	48.8	4	14	270	0.00	29.448 
23:35	50.8	50.8	50.8	92	48.6	4	9	270	0.00	29.438 
23:40	50.2	50.2	50.2	91	47.7	5	11	270	0.00	29.450 
23:45	49.2	47.9	49.2	91	46.7	4	11	270	0.01	29.476 
23:50	47.7	45.5	47.7	90	44.9	5	13	270	0.00	29.479 
23:55	46.7	46.7	46.7	91	44.2	3	7	270	0.00	29.475 

CoCoRaHS
IN-AL-39
A2 Web Hosting
Creative Commons License
GoDaddy
Look for:

loaded 2017-12-10 21:32:54 • last modified 2010-11-18 10:43:29
Privacy PolicyDisclaimer
• wx.awcolley.com is powered by PmWiki v.2002016 •
• all content (unless otherwise noted) © 2017 A W Colley